METAR Data
IDs: Format: Raw Decoded Include TAF

Data at: 0742 UTC 18 Sep 2021

KJFK 180651Z 36005KT 10SM FEW013 FEW026 FEW090 20/19 A3008 RMK AO2 SLP187 T02000194
KJFK 180551Z 01005KT 10SM FEW012 FEW026 FEW090 21/19 A3009 RMK AO2 SLP190 T02060194 10233 20206 58011
KJFK 180451Z 02006KT 10SM SCT012 SCT027 SCT090 21/20 A3011 RMK AO2 SLP195 T02110200 402560211

KJFK 180528Z 1806/1912 01007KT P6SM SCT007 SCT015 BKN050
  FM180700 01007KT P6SM SCT007 BKN012
  TEMPO 1807/1811 BKN007
  FM181300 01007KT P6SM SCT010 SCT040 SCT060
  FM181800 33006KT P6SM SCT060
  FM182000 VRB05KT P6SM SCT060
  FM182100 20007KT P6SM SCT060
  FM190200 32008KT P6SM FEW060


KLGA 180651Z 02005KT 10SM FEW009 SCT017 SCT250 22/19 A3008 RMK AO2 SLP185 T02170189
KLGA 180629Z 03003KT 10SM FEW009 SCT014 SCT250 21/19 A3007 RMK AO2 T02110189
KLGA 180551Z 05006KT 10SM BKN009 OVC014 22/19 A3008 RMK AO2 SLP186 T02170189 10233 20217 58014
KLGA 180541Z 04006KT 10SM BKN009 OVC014 22/19 A3008 RMK AO2 T02170189
KLGA 180451Z 04007KT 10SM BKN014 OVC060 22/19 A3010 RMK AO2 SLP192 T02220194 402390211

KLGA 180528Z 1806/1912 03006KT P6SM SCT008 BKN015
  TEMPO 1806/1810 BKN008
  FM181300 36007KT P6SM SCT015 SCT040 SCT060
  FM182100 29006KT P6SM SCT060
  FM190200 33009KT P6SM FEW060


KEWR 180732Z 01006KT 10SM SCT008 BKN014 BKN080 BKN250 22/19 A3008 RMK AO2 T02170189 $
KEWR 180651Z 04007KT 10SM FEW008 SCT014 SCT080 SCT250 22/19 A3008 RMK AO2 SLP184 T02170194 $
KEWR 180649Z 03006KT 10SM FEW008 SCT014 SCT080 SCT250 22/19 A3008 RMK AO2 $
KEWR 180551Z 01006KT 10SM FEW014 FEW024 SCT070 SCT220 22/19 A3009 RMK AO2 SLP187 6//// T02170194 10233 20217 58013 $
KEWR 180451Z 01008KT 10SM FEW012 SCT032 BKN060 BKN200 22/20 A3010 RMK AO2 SLP193 T02220200 402500217 $

KEWR 180528Z 1806/1912 02005KT P6SM SCT008 SCT012 BKN060
  FM180700 02005KT P6SM SCT008 BKN012
  TEMPO 1807/1811 BKN008
  FM181300 36004KT P6SM SCT008 SCT040
  FM181600 32008KT P6SM FEW020 SCT040
  FM182100 29005KT P6SM SCT040
  FM190200 33007KT P6SM FEW040


KTEB 180711Z AUTO 03003KT 10SM OVC014 21/19 A3007 RMK AO2 T02060194
KTEB 180651Z AUTO 02003KT 10SM BKN015 21/19 A3008 RMK AO2 SLP186 T02060194
KTEB 180649Z AUTO 02003KT 10SM BKN015 21/19 A3008 RMK AO2
KTEB 180600Z AUTO 00000KT 10SM SCT013 21/19 A3008 RMK AO2 T02060194
KTEB 180551Z AUTO 00000KT 10SM BKN013 21/19 A3008 RMK AO2 SLP186 T02110194 10222 20211 58009
KTEB 180519Z AUTO 06004KT 10SM OVC013 22/20 A3009 RMK AO2 T02170200
KTEB 180451Z AUTO 06003KT 10SM BKN015 OVC020 22/20 A3010 RMK AO2 SLP192 T02170200 402330200
KTEB 180449Z AUTO 00000KT 10SM BKN015 OVC020 22/20 A3010 RMK AO2

KTEB 180528Z 1806/1912 04004KT P6SM SCT007 BKN012
  TEMPO 1806/1808 BKN007
  FM180800 VRB04KT P6SM SCT007 BKN010
  FM181300 33005KT P6SM SCT010 SCT040 SCT060
  FM182100 28006KT P6SM SCT040
  FM190200 33005KT P6SM FEW040


KHPN 180656Z 01006KT 10SM BKN011 19/18 A3009 RMK AO2 SLP186 T01940183
KHPN 180556Z 00000KT 10SM BKN014 19/18 A3010 RMK AO2 SLP187 60001 T01940183 10211 20189 58016
KHPN 180456Z 36003KT 10SM FEW010 19/18 A3011 RMK AO2 SLP193 T01890183 402390189

KHPN 180528Z 1806/1906 VRB03KT P6SM SCT010 OVC035
  FM180700 VRB03KT P6SM BKN010
  TEMPO 1807/1811 P6SM BKN008
  FM181300 34005KT P6SM SCT005 SCT020 SCT040
  FM181900 30005KT P6SM SCT040
  FM190200 33006KT P6SM FEW040 AMD NOT SKED


KISP 180656Z AUTO 03008KT 10SM OVC009 21/19 A3007 RMK AO2 SLP181 T02060189
KISP 180615Z AUTO 03010KT 10SM OVC009 21/19 A3007 RMK AO2 T02060194
KISP 180556Z AUTO 03009KT 10SM OVC010 21/19 A3007 RMK AO2 SLP183 T02060189 10217 20206 58017
KISP 180456Z AUTO 04009KT 10SM OVC013 21/19 A3010 RMK AO2 SLP192 T02060194 402390200

KISP 180528Z 1806/1906 02007KT P6SM OVC012
  TEMPO 1806/1810 BKN008
  FM181400 35010KT P6SM SCT008 SCT040
  FM182100 27008KT P6SM SCT040
  FM190200 33005KT P6SM FEW040


KTTN 180710Z AUTO 34005KT 4SM BR SCT004 19/19 A3008 RMK AO2 T01940194
KTTN 180653Z AUTO 35004KT 4SM BR CLR 19/19 A3008 RMK AO2 SLP180 T01890189
KTTN 180553Z AUTO 34004KT 6SM BR CLR 19/19 A3009 RMK AO2 SLP182 T01940194 10217 20194 58012
KTTN 180504Z AUTO 35004KT 6SM BR FEW018 19/19 A3010 RMK AO2 T01940194
KTTN 180453Z AUTO 35004KT 6SM BR BKN019 19/19 A3010 RMK AO2 SLP187 T01940194 402330194

KTTN 180520Z 1806/1906 35003KT 6SM BR SCT015
  FM180700 35003KT 5SM BR BKN015
  FM180900 35003KT 2SM BR OVC005
  FM181300 35003KT 5SM BR OVC015
  FM181500 34005KT P6SM BKN050
  FM181900 32006KT P6SM SCT200
  FM190100 35003KT P6SM SKC


KWRI 180727Z 02003KT 4SM BR SCT005 BKN009 20/20 A3007 RMK AO2A SLP182
KWRI 180656Z 34005KT 6SM BR BKN009 20/20 A3008 RMK AO2A SLP185 T02010199
KWRI 180621Z 00000KT 5SM BR BKN008 OVC014 20/20 A3008 RMK AO2A SLP185
KWRI 180605Z 02003KT 6SM BR BKN005 OVC013 20/20 A3008 RMK AO2A SLP185
KWRI 180556Z COR 02003KT 6SM BR BKN005 OVC013 20/20 A3008 RMK AO2A SLP185 COR 0621
KWRI 180530Z 36004KT 6SM BR BKN007 OVC011 21/20 A3009 RMK AO2A SLP188 57012
KWRI 180520Z VRB04KT 6SM BR BKN006 21/20 A3009 RMK AO2A SLP188 57013
KWRI 180456Z 35004KT 5SM BR SCT003 BKN007 21/21 A3010 RMK AO2A SCTV BKN SLP192 T02070205 402410195
KWRI 180446Z 01004KT 5SM BR OVC003 21/20 A3010 RMK AO2A SLP192

TAF AMD KWRI 180500Z 1805/1908 35005KT 4800 BR BKN009 QNH3004INS
  TEMPO 1805/1810 2400 BR SCT003 BKN006
  BECMG 1812/1813 34006KT 9999 NSW BKN020 QNH3003INS
  BECMG 1814/1815 33008KT 9999 BKN035 BKN100 QNH3002INS
  BECMG 1819/1820 32008KT 9999 SCT050 SCT100 QNH2998INS
  BECMG 1902/1903 32006KT 9999 FEW120 QNH2996INS TX28/1819Z TN19/1809Z